Terminal Aerodrome Forecast
Issued by NWS

Home | Current Version | Previous Version | Text Only | Print | Product List | Glossary On
Versions: 1 2 3 4 5 6 7 8 9 10 11 12 13
000
FTUS45 KFGZ 051137
TAFGCN
TAF
KGCN 051137Z 0512/0612 VRB03KT P6SM FEW080 SCT120
     FM051800 22007KT P6SM SCT080 BKN120
      TEMPO 0519/0523 VRB15G25KT 5SM TSRA BKN080CB
     FM060200 VRB03KT P6SM SCT080=

USA.gov is the U.S. government's official web portal to all federal, state and local government web resources and services.